Time;durP1;ratioP1;P1;durP2;ratioP2;P2;SDS_P1;SDS_P2;PMS_P1;PMS_P2;Temp;Humidity;BMP_temperature;BMP_pressure;BME280_temperature;BME280_humidity;BME280_pressure;Samples;Min_cycle;Max_cycle;Signal;HPM_P1;HPM_P2
2023/02/10 00:01:18;;;;;;;14.63;6.90;;;7.20;46.10;;;;;;7566504;23;20050;-64
2023/02/10 00:04:19;;;;;;;13.60;5.57;;;7.20;46.20;;;;;;7568280;23;20002;-65
2023/02/10 00:07:20;;;;;;;12.93;5.40;;;7.20;46.90;;;;;;7565911;23;20014;-65
2023/02/10 00:10:21;;;;;;;17.52;6.60;;;7.20;46.30;;;;;;7567955;23;20368;-65
2023/02/10 00:13:22;;;;;;;14.85;6.13;;;7.20;46.30;;;;;;7567930;23;20042;-65
2023/02/10 00:16:22;;;;;;;13.23;5.68;;;7.20;46.30;;;;;;7567619;23;20466;-64
2023/02/10 00:19:26;;;;;;;14.43;5.78;;;7.20;46.50;;;;;;7567498;23;20004;-67
2023/02/10 00:22:26;;;;;;;12.80;6.40;;;7.20;46.80;;;;;;7566254;23;20002;-64
2023/02/10 00:25:27;;;;;;;17.27;7.07;;;7.10;46.70;;;;;;7565953;23;20351;-65
2023/02/10 00:28:28;;;;;;;18.42;7.38;;;7.10;47.40;;;;;;7565712;23;20014;-66
2023/02/10 00:31:29;;;;;;;34.10;8.60;;;7.10;46.90;;;;;;7567583;23;20061;-65
2023/02/10 00:34:30;;;;;;;23.88;8.85;;;7.10;47.00;;;;;;7567657;23;20018;-65
2023/02/10 00:37:31;;;;;;;25.80;9.27;;;7.10;47.20;;;;;;7567535;23;20037;-65
2023/02/10 00:40:32;;;;;;;20.75;8.27;;;7.00;47.40;;;;;;7566696;23;20349;-65
2023/02/10 00:43:33;;;;;;;20.35;7.75;;;7.00;47.50;;;;;;7574195;23;20010;-65
2023/02/10 00:46:33;;;;;;;22.63;8.15;;;7.00;47.60;;;;;;7574894;23;20006;-65
2023/02/10 00:49:34;;;;;;;32.45;9.18;;;7.00;47.80;;;;;;7567321;23;20428;-65
2023/02/10 00:52:35;;;;;;;25.40;10.35;;;6.90;47.90;;;;;;7566716;23;20018;-66
2023/02/10 00:55:36;;;;;;;21.70;8.40;;;6.90;48.00;;;;;;7568895;23;20018;-65
2023/02/10 00:58:37;;;;;;;25.98;8.35;;;6.80;47.90;;;;;;7567360;23;20011;-65
2023/02/10 01:01:38;;;;;;;21.83;9.32;;;6.80;47.90;;;;;;7571299;23;20026;-65
2023/02/10 01:04:39;;;;;;;19.85;8.77;;;6.80;48.00;;;;;;7566494;23;20460;-66
2023/02/10 01:07:40;;;;;;;21.83;9.13;;;6.80;48.00;;;;;;7565383;23;20021;-65
2023/02/10 01:10:41;;;;;;;23.00;8.80;;;6.80;48.10;;;;;;7565578;23;20054;-65
2023/02/10 01:13:43;;;;;;;32.35;7.95;;;6.80;48.10;;;;;;7565664;23;20011;-66
2023/02/10 01:16:44;;;;;;;18.80;7.15;;;6.80;48.10;;;;;;7565712;23;20010;-66
2023/02/10 01:19:47;;;;;;;16.33;6.95;;;6.80;48.00;;;;;;7565203;23;20034;-65
2023/02/10 01:22:50;;;;;;;25.88;7.05;;;6.80;48.00;;;;;;7565617;23;20014;-66
2023/02/10 01:25:51;;;;;;;25.77;7.88;;;6.70;48.10;;;;;;7565368;23;20062;-65
2023/02/10 01:28:52;;;;;;;17.92;6.25;;;6.70;48.20;;;;;;7541487;23;20428;-66
2023/02/10 01:31:52;;;;;;;18.13;5.80;;;6.70;48.20;;;;;;7566762;23;20029;-65
2023/02/10 01:34:53;;;;;;;15.35;5.43;;;6.70;48.20;;;;;;7565237;23;20424;-66
2023/02/10 01:37:55;;;;;;;19.67;6.40;;;6.70;48.20;;;;;;7564871;23;20006;-65
2023/02/10 01:40:55;;;;;;;11.75;5.57;;;6.70;48.20;;;;;;7566864;23;20017;-66
2023/02/10 01:44:06;;;;;;;23.20;7.35;;;6.70;48.20;;;;;;7517648;23;20504;-64
2023/02/10 01:47:08;;;;;;;12.65;6.13;;;6.70;48.20;;;;;;7566130;23;20011;-65
2023/02/10 01:50:10;;;;;;;19.10;7.53;;;6.60;48.20;;;;;;7541269;23;20037;-65
2023/02/10 01:53:11;;;;;;;17.10;6.28;;;6.60;48.40;;;;;;7566678;23;20340;-65
2023/02/10 01:56:15;;;;;;;12.88;6.40;;;6.60;48.40;;;;;;7517291;23;20017;-64
2023/02/10 01:59:18;;;;;;;12.82;5.80;;;6.50;48.50;;;;;;7540392;23;20006;-65
2023/02/10 02:02:20;;;;;;;16.58;7.30;;;6.50;48.60;;;;;;7541039;23;20011;-66
2023/02/10 02:05:30;;;;;;;14.65;6.70;;;6.40;48.60;;;;;;7541268;23;20014;-66
2023/02/10 02:08:31;;;;;;;11.25;5.70;;;6.30;48.70;;;;;;7540868;23;20033;-65
2023/02/10 02:11:42;;;;;;;13.98;6.93;;;6.30;48.80;;;;;;7566494;23;20318;-64
2023/02/10 02:15:26;;;;;;;17.67;7.53;;;6.30;49.00;;;;;;7540839;23;20011;-65
2023/02/10 02:18:36;;;;;;;17.23;7.43;;;6.20;49.10;;;;;;7553035;23;20006;-65
2023/02/10 02:21:43;;;;;;;20.42;7.20;;;6.10;49.30;;;;;;7566253;23;20010;-65
2023/02/10 02:24:46;;;;;;;19.80;7.60;;;6.10;49.50;;;;;;7540797;23;20014;-66
2023/02/10 02:27:53;;;;;;;13.93;6.70;;;6.00;49.60;;;;;;7565972;23;20006;-65
2023/02/10 02:31:43;;;;;;;17.83;7.28;;;5.90;49.80;;;;;;7540933;23;20054;-66
2023/02/10 02:35:13;;;;;;;12.73;6.30;;;5.80;49.80;;;;;;7538771;23;20340;-65
2023/02/10 02:38:14;;;;;;;20.77;6.47;;;5.90;50.00;;;;;;7475541;23;20138;-65
2023/02/10 02:41:23;;;;;;;15.02;6.03;;;5.80;50.00;;;;;;7503306;23;20007;-65
2023/02/10 02:44:24;;;;;;;16.35;7.63;;;5.80;50.10;;;;;;7527089;23;20010;-65
2023/02/10 02:47:59;;;;;;;16.08;7.53;;;5.70;50.10;;;;;;7527035;23;20014;-64
2023/02/10 02:51:05;;;;;;;15.38;5.88;;;5.70;50.10;;;;;;7503531;23;20038;-66
2023/02/10 02:54:26;;;;;;;17.60;7.07;;;5.70;50.10;;;;;;7503318;23;20473;-66
2023/02/10 02:57:54;;;;;;;14.05;6.07;;;5.70;50.10;;;;;;7503481;23;20484;-65
2023/02/10 03:01:04;;;;;;;16.35;6.75;;;5.70;50.00;;;;;;7503280;23;20110;-65
2023/02/10 03:04:08;;;;;;;14.23;6.10;;;5.70;50.00;;;;;;7503276;23;20010;-66
2023/02/10 03:07:09;;;;;;;12.70;5.50;;;5.70;49.90;;;;;;7503247;23;20067;-65
2023/02/10 03:10:10;;;;;;;13.63;5.72;;;5.80;49.90;;;;;;7527278;23;20006;-66
2023/02/10 03:13:11;;;;;;;16.83;7.30;;;5.70;50.00;;;;;;7534115;23;20018;-66
2023/02/10 03:16:11;;;;;;;15.98;6.07;;;5.70;50.10;;;;;;7567299;23;20006;-65
2023/02/10 03:19:12;;;;;;;18.35;6.45;;;5.70;50.10;;;;;;7567165;23;20102;-67
2023/02/10 03:22:13;;;;;;;15.95;6.28;;;5.80;50.10;;;;;;7568780;23;20010;-64
2023/02/10 03:25:14;;;;;;;14.75;6.90;;;5.80;50.00;;;;;;7567100;23;20014;-65
2023/02/10 03:28:15;;;;;;;15.93;6.32;;;5.80;50.00;;;;;;7568384;23;20302;-65
2023/02/10 03:31:16;;;;;;;14.15;6.28;;;5.80;50.10;;;;;;7567237;23;20011;-65
2023/02/10 03:34:17;;;;;;;18.05;7.47;;;5.80;50.10;;;;;;7568706;23;20013;-65
2023/02/10 03:37:18;;;;;;;17.48;6.25;;;5.80;50.10;;;;;;7566486;23;20675;-65
2023/02/10 03:40:19;;;;;;;19.13;7.20;;;5.80;50.20;;;;;;7568555;23;20010;-66
2023/02/10 03:43:21;;;;;;;19.25;7.53;;;5.80;50.20;;;;;;7568507;23;20007;-64
2023/02/10 03:46:22;;;;;;;12.88;5.65;;;5.80;50.20;;;;;;7542748;23;20479;-65
2023/02/10 03:49:23;;;;;;;14.82;7.38;;;5.80;50.20;;;;;;7542490;23;20014;-65
2023/02/10 03:52:24;;;;;;;13.82;7.35;;;5.80;50.30;;;;;;7568748;23;20016;-66
2023/02/10 03:55:25;;;;;;;17.80;7.55;;;5.80;50.30;;;;;;7568708;23;20006;-65
2023/02/10 03:58:25;;;;;;;16.38;6.88;;;5.80;50.30;;;;;;7570682;23;20011;-65
2023/02/10 04:01:26;;;;;;;19.67;6.63;;;5.80;50.50;;;;;;7549700;23;20010;-66
2023/02/10 04:04:27;;;;;;;12.20;5.97;;;5.70;50.50;;;;;;7573161;23;20009;-66
2023/02/10 04:07:28;;;;;;;19.70;7.45;;;5.70;50.60;;;;;;7570379;23;19999;-65
2023/02/10 04:10:29;;;;;;;12.90;5.32;;;5.60;50.70;;;;;;7542851;23;20002;-66
2023/02/10 04:13:30;;;;;;;10.52;6.35;;;5.60;50.70;;;;;;7569063;23;20373;-65
2023/02/10 04:16:32;;;;;;;14.13;5.93;;;5.60;50.80;;;;;;7542397;23;20014;-66
2023/02/10 04:19:33;;;;;;;18.63;6.50;;;5.60;50.80;;;;;;7542339;23;20003;-65
2023/02/10 04:22:33;;;;;;;20.63;7.15;;;5.50;50.80;;;;;;7542009;23;20440;-65
2023/02/10 04:25:34;;;;;;;11.30;5.40;;;5.60;50.80;;;;;;7518362;23;20022;-66
2023/02/10 04:28:35;;;;;;;14.98;5.53;;;5.60;50.70;;;;;;7567909;23;20013;-65
2023/02/10 04:31:36;;;;;;;13.00;5.85;;;5.60;50.80;;;;;;7567729;23;20014;-68
2023/02/10 04:34:37;;;;;;;10.88;4.75;;;5.60;50.70;;;;;;7542037;23;20090;-66
2023/02/10 04:37:38;;;;;;;8.65;5.03;;;5.60;50.70;;;;;;7567034;23;20065;-66
2023/02/10 04:40:39;;;;;;;12.50;5.03;;;5.60;50.70;;;;;;7567870;23;20030;-64
2023/02/10 04:43:40;;;;;;;13.27;5.65;;;5.50;50.60;;;;;;7541914;23;20009;-65
2023/02/10 04:46:41;;;;;;;18.98;5.90;;;5.50;50.80;;;;;;7567342;23;20011;-67
2023/02/10 04:49:41;;;;;;;10.30;4.47;;;5.50;50.90;;;;;;7517654;23;20042;-67
2023/02/10 04:52:42;;;;;;;11.02;5.32;;;5.40;51.00;;;;;;7567565;23;20030;-65
2023/02/10 04:55:43;;;;;;;10.88;4.45;;;5.40;51.20;;;;;;7541562;23;20013;-66
2023/02/10 04:58:44;;;;;;;12.48;5.55;;;5.30;51.20;;;;;;7566996;23;20057;-65
2023/02/10 05:01:45;;;;;;;9.07;4.13;;;5.30;51.30;;;;;;7567409;23;20097;-64
2023/02/10 05:04:46;;;;;;;8.27;4.38;;;5.30;51.50;;;;;;7517633;23;20433;-65
2023/02/10 05:07:46;;;;;;;12.50;5.45;;;5.30;51.50;;;;;;7541192;23;20147;-64
2023/02/10 05:10:48;;;;;;;19.00;6.90;;;5.30;51.50;;;;;;7541630;23;20387;-66
2023/02/10 05:13:49;;;;;;;10.32;5.00;;;5.30;51.50;;;;;;7567041;23;20022;-66
2023/02/10 05:16:50;;;;;;;15.95;5.40;;;5.30;51.60;;;;;;7567169;23;20336;-65
2023/02/10 05:19:51;;;;;;;13.25;6.00;;;5.30;51.70;;;;;;7566849;23;20030;-65
2023/02/10 05:22:51;;;;;;;12.52;6.10;;;5.30;51.70;;;;;;7567067;23;20333;-65
2023/02/10 05:25:53;;;;;;;11.63;5.88;;;5.30;51.80;;;;;;7567098;23;20333;-66
2023/02/10 05:28:54;;;;;;;14.32;6.78;;;5.30;52.00;;;;;;7541639;23;20006;-66
2023/02/10 05:31:55;;;;;;;13.10;6.20;;;5.30;52.00;;;;;;7541580;23;20007;-66
2023/02/10 05:34:55;;;;;;;20.08;7.72;;;5.20;52.00;;;;;;7517433;23;20006;-65
2023/02/10 05:37:56;;;;;;;15.15;7.07;;;5.20;52.00;;;;;;7517068;23;20523;-66
2023/02/10 05:40:57;;;;;;;14.07;6.35;;;5.20;52.10;;;;;;7566753;23;20033;-65
2023/02/10 05:43:58;;;;;;;18.33;7.07;;;5.20;52.20;;;;;;7566834;23;20007;-65
2023/02/10 05:46:59;;;;;;;14.40;6.78;;;5.10;52.30;;;;;;7541088;23;20017;-66
2023/02/10 05:50:00;;;;;;;22.45;6.72;;;5.10;52.40;;;;;;7566854;23;20014;-65
2023/02/10 05:53:01;;;;;;;15.82;7.63;;;5.00;52.40;;;;;;7566920;23;20013;-66
2023/02/10 05:56:02;;;;;;;17.60;7.10;;;5.00;52.40;;;;;;7566527;23;20053;-66
2023/02/10 05:59:03;;;;;;;16.38;6.55;;;5.00;52.50;;;;;;7540836;23;19998;-66
2023/02/10 06:02:04;;;;;;;12.45;7.15;;;4.90;52.50;;;;;;7566540;23;20373;-66
2023/02/10 06:05:05;;;;;;;22.13;6.30;;;5.00;52.60;;;;;;7541238;23;20082;-65
2023/02/10 06:08:06;;;;;;;15.65;6.75;;;5.00;52.70;;;;;;7540554;23;20046;-66
2023/02/10 06:11:07;;;;;;;16.60;6.47;;;4.90;52.70;;;;;;7541345;23;20393;-65
2023/02/10 06:14:08;;;;;;;22.42;7.50;;;4.90;52.70;;;;;;7566447;23;20428;-66
2023/02/10 06:17:09;;;;;;;15.63;6.05;;;4.90;52.80;;;;;;7566441;23;20416;-66
2023/02/10 06:20:10;;;;;;;12.15;6.53;;;4.90;52.90;;;;;;7540911;23;20007;-67
2023/02/10 06:23:12;;;;;;;15.52;6.35;;;4.90;52.90;;;;;;7566671;23;20006;-67
2023/02/10 06:26:13;;;;;;;22.02;6.72;;;4.90;53.00;;;;;;7566429;23;20010;-67
2023/02/10 06:29:14;;;;;;;14.35;6.82;;;4.90;53.00;;;;;;7566297;23;20010;-66
2023/02/10 06:32:15;;;;;;;8.40;4.45;;;4.80;53.10;;;;;;7566618;23;20021;-67
2023/02/10 06:35:16;;;;;;;18.77;8.07;;;4.80;53.20;;;;;;7541238;23;20375;-65
2023/02/10 06:38:17;;;;;;;14.02;6.63;;;4.80;53.20;;;;;;7565883;23;20029;-66
2023/02/10 06:41:18;;;;;;;16.02;7.10;;;4.80;53.20;;;;;;7541169;23;20018;-65
2023/02/10 06:44:19;;;;;;;13.60;6.10;;;4.80;53.20;;;;;;7541050;23;20010;-65
2023/02/10 06:47:20;;;;;;;12.70;5.03;;;4.80;53.20;;;;;;7542658;23;20010;-66
2023/02/10 06:50:21;;;;;;;18.25;6.93;;;4.80;53.20;;;;;;7519539;23;20021;-64
2023/02/10 06:53:22;;;;;;;15.40;6.45;;;4.80;53.10;;;;;;7543386;23;20440;-65
2023/02/10 06:56:23;;;;;;;19.00;6.28;;;4.80;53.20;;;;;;7519544;23;20443;-66
2023/02/10 06:59:24;;;;;;;17.88;7.13;;;4.70;53.20;;;;;;7570200;23;20255;-65
2023/02/10 07:02:25;;;;;;;17.27;7.80;;;4.70;53.20;;;;;;7577223;23;20006;-65
2023/02/10 07:05:26;;;;;;;15.95;5.65;;;4.70;53.30;;;;;;7547200;23;20085;-67
2023/02/10 07:08:27;;;;;;;14.10;6.60;;;4.70;53.40;;;;;;7570245;23;20384;-66
2023/02/10 07:11:28;;;;;;;19.27;6.05;;;4.70;53.40;;;;;;7569722;23;20010;-66
2023/02/10 07:14:29;;;;;;;16.60;6.10;;;4.70;53.40;;;;;;7571590;23;20010;-66
2023/02/10 07:17:30;;;;;;;13.02;6.65;;;4.70;53.50;;;;;;7547855;23;20010;-65
2023/02/10 07:20:31;;;;;;;11.80;5.60;;;4.80;53.70;;;;;;7544844;23;20388;-65
2023/02/10 07:23:31;;;;;;;12.52;5.10;;;4.90;53.60;;;;;;7543891;23;20010;-66
2023/02/10 07:26:33;;;;;;;13.48;5.15;;;4.90;53.20;;;;;;7569175;23;20010;-66
2023/02/10 07:29:34;;;;;;;16.52;6.53;;;5.00;53.00;;;;;;7542345;23;20416;-66
2023/02/10 07:32:35;;;;;;;13.48;6.82;;;5.00;52.90;;;;;;7542692;23;20014;-66
2023/02/10 07:35:36;;;;;;;18.00;7.07;;;5.00;52.70;;;;;;7542717;23;20037;-66
2023/02/10 07:38:37;;;;;;;13.10;6.38;;;5.10;52.80;;;;;;7542596;23;20053;-67
2023/02/10 07:41:39;;;;;;;41.80;8.30;;;5.10;52.90;;;;;;7566763;23;20013;-68
2023/02/10 07:44:39;;;;;;;20.13;7.05;;;5.10;53.00;;;;;;7568039;23;20018;-66
2023/02/10 07:47:40;;;;;;;21.92;7.32;;;5.10;52.90;;;;;;7567915;23;20084;-66
2023/02/10 07:50:41;;;;;;;18.30;7.65;;;5.10;53.00;;;;;;7566884;23;20309;-67
2023/02/10 07:53:42;;;;;;;16.08;7.15;;;5.10;53.10;;;;;;7566929;23;20333;-67
2023/02/10 07:56:43;;;;;;;15.48;6.47;;;5.10;53.10;;;;;;7567698;23;20050;-65
2023/02/10 07:59:44;;;;;;;20.65;7.68;;;5.10;53.10;;;;;;7566345;23;19999;-66
2023/02/10 08:02:45;;;;;;;19.13;6.95;;;5.20;53.00;;;;;;7568507;23;20034;-67
2023/02/10 08:05:48;;;;;;;22.67;7.93;;;5.20;52.70;;;;;;7568631;23;20090;-66
2023/02/10 08:08:49;;;;;;;10.73;5.75;;;5.10;52.60;;;;;;7567546;23;20018;-68
2023/02/10 08:11:50;;;;;;;18.30;7.30;;;5.10;52.40;;;;;;7566337;23;20412;-66
2023/02/10 08:14:51;;;;;;;29.63;7.00;;;5.10;52.30;;;;;;7567249;23;20007;-67
2023/02/10 08:17:52;;;;;;;12.98;5.72;;;5.10;52.40;;;;;;7567235;23;20030;-66
2023/02/10 08:20:53;;;;;;;18.13;7.07;;;5.00;52.40;;;;;;7565851;23;20440;-66
2023/02/10 08:23:56;;;;;;;8.30;4.72;;;5.00;52.40;;;;;;7566437;23;20285;-66
2023/02/10 08:26:57;;;;;;;17.45;5.05;;;5.00;52.60;;;;;;7566191;23;20096;-67
2023/02/10 08:29:57;;;;;;;22.90;8.57;;;5.00;52.70;;;;;;7567756;23;20324;-65
2023/02/10 08:32:58;;;;;;;22.52;5.78;;;5.10;52.80;;;;;;7565826;23;20073;-66
2023/02/10 08:36:07;;;;;;;18.02;5.93;;;5.10;52.80;;;;;;7567812;23;20014;-66
2023/02/10 08:39:09;;;;;;;15.13;6.60;;;5.20;52.70;;;;;;7567128;23;20006;-65
2023/02/10 08:42:10;;;;;;;15.38;6.82;;;5.30;52.70;;;;;;7567715;23;20082;-67
2023/02/10 08:45:11;;;;;;;17.85;6.38;;;5.20;52.50;;;;;;7567571;23;20010;-67
2023/02/10 08:48:12;;;;;;;14.45;6.40;;;5.30;52.50;;;;;;7566764;23;20014;-66
2023/02/10 08:51:14;;;;;;;14.65;6.97;;;5.30;52.50;;;;;;7566989;23;20010;-66
2023/02/10 08:54:15;;;;;;;20.00;7.50;;;5.40;52.40;;;;;;7518202;23;20021;-65
2023/02/10 08:57:16;;;;;;;11.50;6.47;;;5.50;52.20;;;;;;7566421;23;20014;-66
2023/02/10 09:00:17;;;;;;;15.27;7.13;;;5.70;52.00;;;;;;7517179;23;20038;-68
2023/02/10 09:03:18;;;;;;;17.75;7.50;;;5.70;51.60;;;;;;7566953;23;20006;-66
2023/02/10 09:06:22;;;;;;;40.33;7.95;;;5.80;51.40;;;;;;7541734;23;20447;-66
2023/02/10 09:09:24;;;;;;;16.52;6.47;;;5.90;51.20;;;;;;7566760;23;20017;-65
2023/02/10 09:12:25;;;;;;;28.67;8.45;;;6.00;51.20;;;;;;7567307;23;20014;-65
2023/02/10 09:15:26;;;;;;;21.33;7.72;;;6.10;51.00;;;;;;7541524;23;20017;-66
2023/02/10 09:18:27;;;;;;;27.45;7.40;;;6.30;50.90;;;;;;7541183;23;20010;-66
2023/02/10 09:21:28;;;;;;;14.23;6.80;;;6.40;50.60;;;;;;7566924;23;20337;-66
2023/02/10 09:24:29;;;;;;;28.30;8.82;;;6.60;50.30;;;;;;7567132;23;20002;-66
2023/02/10 09:27:30;;;;;;;17.27;7.97;;;6.70;49.80;;;;;;7566441;23;20033;-66
2023/02/10 09:30:31;;;;;;;17.38;7.13;;;6.90;49.70;;;;;;7541420;23;20101;-67
2023/02/10 09:33:32;;;;;;;24.55;7.50;;;7.00;49.30;;;;;;7540970;23;20058;-66
2023/02/10 09:36:33;;;;;;;19.38;8.32;;;7.00;49.30;;;;;;7566782;23;20093;-66
2023/02/10 09:39:34;;;;;;;15.52;7.40;;;7.10;49.10;;;;;;7567060;23;20015;-66
2023/02/10 09:42:34;;;;;;;20.23;7.55;;;7.10;48.70;;;;;;7567175;23;20006;-65
2023/02/10 09:45:39;;;;;;;26.35;7.10;;;7.20;48.70;;;;;;7567020;23;20044;-67
2023/02/10 09:48:55;;;;;;;23.92;8.38;;;7.30;48.30;;;;;;7541252;23;20081;-67
2023/02/10 09:52:11;;;;;;;14.20;6.72;;;7.30;47.80;;;;;;7568094;23;20376;-66
2023/02/10 09:55:20;;;;;;;12.93;7.00;;;7.30;47.60;;;;;;7542365;23;20007;-65
2023/02/10 09:58:43;;;;;;;18.75;7.10;;;7.40;47.50;;;;;;7541357;23;20010;-67
2023/02/10 10:01:55;;;;;;;20.35;7.07;;;7.50;47.60;;;;;;7541347;23;20074;-65
2023/02/10 10:04:59;;;;;;;14.18;6.03;;;7.60;47.20;;;;;;7541098;23;20015;-67
2023/02/10 10:08:02;;;;;;;14.52;6.00;;;7.70;46.50;;;;;;7566169;23;20057;-69
2023/02/10 10:11:19;;;;;;;16.60;6.60;;;7.70;46.40;;;;;;7566878;23;20037;-66
2023/02/10 10:14:29;;;;;;;15.40;6.22;;;7.80;46.10;;;;;;7566790;23;20010;-68
2023/02/10 10:17:37;;;;;;;12.68;5.90;;;7.90;45.70;;;;;;7566125;23;20057;-67
2023/02/10 10:21:03;;;;;;;13.45;5.78;;;7.90;45.20;;;;;;7540603;23;20099;-66
2023/02/10 10:24:14;;;;;;;16.05;6.10;;;8.00;44.60;;;;;;7566941;23;20002;-67
2023/02/10 10:27:34;;;;;;;12.27;6.10;;;8.20;44.10;;;;;;7541496;23;20014;-68
2023/02/10 10:30:45;;;;;;;8.95;4.15;;;8.40;43.70;;;;;;7569266;23;20006;-66
2023/02/10 10:34:15;;;;;;;14.63;5.05;;;8.90;42.80;;;;;;7545865;23;20018;-66
2023/02/10 10:37:20;;;;;;;23.58;5.97;;;9.10;41.80;;;;;;7565190;23;20096;-66
2023/02/10 10:40:29;;;;;;;14.15;6.47;;;9.30;41.60;;;;;;7562151;23;20003;-66
2023/02/10 10:43:32;;;;;;;13.55;6.22;;;9.50;41.60;;;;;;7564602;23;20332;-67
2023/02/10 10:46:43;;;;;;;31.38;7.40;;;9.80;41.00;;;;;;7565865;23;20149;-67
2023/02/10 10:49:43;;;;;;;15.63;5.50;;;10.00;40.50;;;;;;7563614;23;20290;-66
2023/02/10 10:52:51;;;;;;;14.93;5.65;;;10.10;39.10;;;;;;7563992;23;20010;-66
2023/02/10 10:55:54;;;;;;;14.75;6.28;;;10.20;38.90;;;;;;7565861;23;20093;-65
2023/02/10 10:58:56;;;;;;;20.08;5.85;;;10.30;39.10;;;;;;7565278;23;20006;-67
2023/02/10 11:01:57;;;;;;;15.65;6.18;;;10.40;39.20;;;;;;7564650;23;20010;-66
2023/02/10 11:05:14;;;;;;;14.35;6.55;;;10.60;39.00;;;;;;7564191;23;20015;-67
2023/02/10 11:08:25;;;;;;;15.77;6.28;;;10.90;39.00;;;;;;7566012;23;20006;-67
2023/02/10 11:11:42;;;;;;;12.57;5.57;;;11.20;38.30;;;;;;7564744;23;20089;-67
2023/02/10 11:14:45;;;;;;;13.02;5.88;;;11.40;38.10;;;;;;7564361;23;20021;-66
2023/02/10 11:17:47;;;;;;;16.77;6.78;;;11.60;37.20;;;;;;7564336;23;20012;-67
2023/02/10 11:20:55;;;;;;;12.48;6.00;;;11.90;36.80;;;;;;7565597;23;20447;-66
2023/02/10 11:23:56;;;;;;;13.77;6.50;;;12.10;35.50;;;;;;7566108;23;20002;-66
2023/02/10 11:27:06;;;;;;;11.52;5.10;;;12.40;35.30;;;;;;7565971;23;20010;-67
2023/02/10 11:30:28;;;;;;;17.02;6.40;;;12.60;34.80;;;;;;7565848;23;20161;-67
2023/02/10 11:33:33;;;;;;;18.65;7.43;;;13.00;33.90;;;;;;7566383;23;20089;-67
2023/02/10 11:36:39;;;;;;;14.27;7.07;;;13.40;33.10;;;;;;7565930;23;20021;-66
2023/02/10 11:39:44;;;;;;;17.17;7.20;;;13.70;31.80;;;;;;7567480;23;20006;-66
2023/02/10 11:42:50;;;;;;;12.55;6.05;;;14.00;31.80;;;;;;7567695;23;20753;-66
2023/02/10 11:46:01;;;;;;;19.83;7.60;;;14.40;31.30;;;;;;7542453;23;20017;-67
2023/02/10 11:49:12;;;;;;;12.77;6.50;;;14.80;30.20;;;;;;7567206;23;20010;-66
2023/02/10 11:52:13;;;;;;;19.02;6.25;;;15.20;30.00;;;;;;7567768;23;20010;-67
2023/02/10 11:55:16;;;;;;;18.38;6.43;;;15.60;29.50;;;;;;7567615;23;20041;-67
2023/02/10 11:58:59;;;;;;;14.15;5.32;;;16.00;28.90;;;;;;7566884;23;20014;-66
2023/02/10 12:02:47;;;;;;;15.57;6.18;;;16.30;27.70;;;;;;7567658;23;20033;-66
2023/02/10 12:06:10;;;;;;;16.33;6.20;;;16.50;27.70;;;;;;7493081;23;20037;-66
2023/02/10 12:09:38;;;;;;;11.45;5.03;;;16.80;27.50;;;;;;7492408;23;20011;-64
2023/02/10 12:12:57;;;;;;;14.27;5.25;;;17.20;26.30;;;;;;7492377;23;20019;-67
2023/02/10 12:16:12;;;;;;;24.08;5.25;;;17.40;25.60;;;;;;7492943;23;20011;-66
2023/02/10 12:19:35;;;;;;;17.48;5.35;;;17.50;25.20;;;;;;7468753;23;20034;-66
2023/02/10 12:22:45;;;;;;;12.85;5.28;;;17.20;25.40;;;;;;7469264;23;20003;-67
2023/02/10 12:25:54;;;;;;;14.80;5.47;;;16.60;26.10;;;;;;7493854;23;20011;-66
2023/02/10 12:29:13;;;;;;;14.40;5.95;;;16.00;26.90;;;;;;7469784;23;20046;-66
2023/02/10 12:32:28;;;;;;;13.30;5.88;;;15.70;27.40;;;;;;7492663;23;20078;-66
2023/02/10 12:35:47;;;;;;;19.10;6.75;;;15.40;27.80;;;;;;7492413;23;20532;-67
2023/02/10 12:39:03;;;;;;;13.10;5.47;;;15.00;28.10;;;;;;7493018;23;20015;-67
2023/02/10 12:42:35;;;;;;;13.85;5.93;;;14.80;28.50;;;;;;7567076;23;20009;-66
2023/02/10 12:45:43;;;;;;;21.35;6.25;;;14.70;28.80;;;;;;7567286;23;20021;-67
2023/02/10 12:49:02;;;;;;;16.10;6.65;;;14.50;28.90;;;;;;7569891;23;20034;-68
2023/02/10 12:52:44;;;;;;;21.27;6.93;;;14.20;29.20;;;;;;7567485;23;20014;-66
2023/02/10 12:56:06;;;;;;;19.23;7.13;;;13.90;29.50;;;;;;7457295;23;20038;-65
2023/02/10 12:59:27;;;;;;;13.63;6.40;;;13.70;29.80;;;;;;7433140;23;20015;-67
2023/02/10 13:02:36;;;;;;;10.75;5.63;;;13.50;30.00;;;;;;7456329;23;20511;-65
2023/02/10 13:05:44;;;;;;;19.83;6.53;;;13.20;30.30;;;;;;7457120;23;20019;-66
2023/02/10 13:08:56;;;;;;;12.03;5.93;;;13.00;30.60;;;;;;7456781;23;20015;-67
2023/02/10 13:12:15;;;;;;;23.42;5.65;;;12.80;30.80;;;;;;7456906;23;20272;-66
2023/02/10 13:15:35;;;;;;;13.50;6.07;;;12.60;31.00;;;;;;7433103;23;20115;-65
2023/02/10 13:18:52;;;;;;;15.43;6.07;;;12.50;31.20;;;;;;7456815;23;20398;-65
2023/02/10 13:22:13;;;;;;;13.50;5.63;;;12.40;31.40;;;;;;7433589;23;20206;-66
2023/02/10 13:25:52;;;;;;;13.07;5.75;;;12.30;31.50;;;;;;7453694;23;20011;-66
2023/02/10 13:29:01;;;;;;;14.00;6.63;;;12.20;31.70;;;;;;7456383;23;20436;-67
2023/02/10 13:32:33;;;;;;;13.07;5.80;;;12.20;31.80;;;;;;7456784;23;20034;-67
2023/02/10 13:35:34;;;;;;;13.13;5.43;;;12.10;32.00;;;;;;7432205;23;20054;-65
2023/02/10 13:38:35;;;;;;;19.30;5.65;;;12.10;32.20;;;;;;7432384;23;20063;-66
2023/02/10 13:41:47;;;;;;;14.10;6.22;;;12.10;32.30;;;;;;7456196;23;20020;-66
2023/02/10 13:45:01;;;;;;;11.27;5.25;;;12.10;32.40;;;;;;7432500;23;20070;-65
2023/02/10 13:48:16;;;;;;;16.92;5.40;;;12.10;32.30;;;;;;7455806;23;20375;-64
2023/02/10 13:51:17;;;;;;;12.73;5.28;;;12.10;32.40;;;;;;7456504;23;20087;-65
2023/02/10 13:54:29;;;;;;;15.07;6.35;;;12.10;32.50;;;;;;7433136;23;20012;-66
2023/02/10 13:57:38;;;;;;;11.45;6.05;;;12.10;32.50;;;;;;7458417;23;20016;-66
2023/02/10 14:00:47;;;;;;;13.43;6.93;;;12.10;32.80;;;;;;7459526;23;20011;-66
2023/02/10 14:03:55;;;;;;;15.23;6.72;;;12.10;32.90;;;;;;7481080;23;20010;-65
2023/02/10 14:06:56;;;;;;;20.83;7.93;;;12.00;33.00;;;;;;7564700;23;20010;-67
2023/02/10 14:10:18;;;;;;;12.20;6.50;;;12.10;33.10;;;;;;7565737;23;20094;-66
2023/02/10 14:13:26;;;;;;;18.15;6.50;;;12.10;33.20;;;;;;7564369;23;20010;-66
2023/02/10 14:16:36;;;;;;;16.67;6.38;;;12.10;33.40;;;;;;7564172;23;20014;-66
2023/02/10 14:19:40;;;;;;;13.00;6.50;;;12.20;33.60;;;;;;7565562;23;20006;-65
2023/02/10 14:22:41;;;;;;;20.10;8.30;;;12.20;33.70;;;;;;7566344;23;20026;-66
2023/02/10 14:25:43;;;;;;;20.67;8.07;;;12.20;33.90;;;;;;7565770;23;20006;-64
2023/02/10 14:28:56;;;;;;;17.27;8.15;;;12.20;34.00;;;;;;7565537;23;20439;-66
2023/02/10 14:31:59;;;;;;;20.70;8.25;;;12.20;34.20;;;;;;7565866;23;20018;-65
2023/02/10 14:35:05;;;;;;;18.40;7.82;;;12.20;34.30;;;;;;7565717;23;20010;-66
2023/02/10 14:38:20;;;;;;;19.33;8.07;;;12.20;34.30;;;;;;7565466;23;20021;-65
2023/02/10 14:41:26;;;;;;;18.67;7.97;;;12.20;34.40;;;;;;7566050;23;20123;-65
2023/02/10 14:44:34;;;;;;;25.27;8.38;;;12.20;34.40;;;;;;7565972;23;20066;-66
2023/02/10 14:47:37;;;;;;;25.75;8.15;;;12.20;34.40;;;;;;7565699;23;20011;-67
2023/02/10 14:50:38;;;;;;;24.00;8.55;;;12.30;34.50;;;;;;7565788;23;20021;-65
2023/02/10 14:53:40;;;;;;;19.98;8.23;;;12.30;34.60;;;;;;7565661;23;20077;-67
2023/02/10 14:57:00;;;;;;;21.35;7.53;;;12.30;34.50;;;;;;7565956;23;20014;-66
2023/02/10 15:00:01;;;;;;;17.35;9.20;;;12.30;34.60;;;;;;7565694;23;20010;-66
2023/02/10 15:03:03;;;;;;;25.17;9.90;;;12.30;34.80;;;;;;7566048;23;20014;-65
2023/02/10 15:06:05;;;;;;;23.50;8.93;;;12.30;34.90;;;;;;7565701;23;20011;-64
2023/02/10 15:09:17;;;;;;;19.17;8.50;;;12.20;35.10;;;;;;7567719;23;20362;-66
2023/02/10 15:12:21;;;;;;;18.40;8.07;;;12.20;35.20;;;;;;7568175;23;20006;-66
2023/02/10 15:15:29;;;;;;;25.80;9.40;;;12.20;35.40;;;;;;7567595;23;20057;-65
2023/02/10 15:18:40;;;;;;;25.30;9.63;;;12.10;35.50;;;;;;7567513;23;20321;-66
2023/02/10 15:21:41;;;;;;;19.58;8.98;;;12.10;35.60;;;;;;7567997;23;20380;-66
2023/02/10 15:24:42;;;;;;;20.95;8.57;;;12.10;35.80;;;;;;7568797;23;20002;-67
2023/02/10 15:27:43;;;;;;;20.77;8.95;;;12.10;35.80;;;;;;7568721;23;20010;-67
2023/02/10 15:30:50;;;;;;;16.60;7.07;;;12.00;35.90;;;;;;7569275;23;20017;-70
2023/02/10 15:33:54;;;;;;;27.42;10.10;;;12.00;36.00;;;;;;7542563;23;20436;-65
2023/02/10 15:37:16;;;;;;;22.38;9.25;;;12.00;36.00;;;;;;7567744;23;20038;-65
2023/02/10 15:40:21;;;;;;;25.38;9.48;;;11.90;36.10;;;;;;7562943;23;20351;-67
2023/02/10 15:43:24;;;;;;;21.17;9.07;;;11.90;36.20;;;;;;7567063;23;20081;-67
2023/02/10 15:46:27;;;;;;;25.42;9.23;;;11.80;36.30;;;;;;7567920;23;20010;-66
2023/02/10 15:49:28;;;;;;;26.13;9.13;;;11.80;36.40;;;;;;7567428;23;20021;-67
2023/02/10 15:52:38;;;;;;;18.60;8.88;;;11.80;36.50;;;;;;7567614;23;20341;-65
2023/02/10 15:55:41;;;;;;;21.45;8.38;;;11.70;36.60;;;;;;7568151;23;20033;-66
2023/02/10 15:58:42;;;;;;;27.45;9.40;;;11.70;36.70;;;;;;7569939;23;20010;-65
2023/02/10 16:01:43;;;;;;;19.45;9.45;;;11.70;36.90;;;;;;7568937;23;20014;-65